Flight Track Log - Related Links

Times and Time Zones

All times are in EDT time to prevent confusion due to time zone crossing. See the FLG3429 flight status page for this flight to view local times or setup timezone preferences in your user account.

Time Position Orientation Groundspeed Altitude Reporting Facility
EDT Latitude Longitude Course Direction KTS MPH feet Rate Location/Type
Tue 09:04:17 PM 40.6500 -73.8167 223° Southwest 175 201 900  Level New York TRACON
Tue 09:06:18 PM 40.5792 -73.7958 167° South 116 133 4,900 2,077 Climbing New York Center
Tue 09:07:00 PM 40.2569 -73.4139 123° Southeast  Level FlightAware Approximate
Tue 09:07:19 PM 40.5603 -73.7214 108° East 184 212 7,200  Level New York Center
Tue 09:08:00 PM 40.1625 -73.3203 146° Southeast  Level FlightAware Approximate
Tue 09:08:20 PM 40.4994 -73.6506 138° Southeast 241 277 9,300  Level New York Center
Tue 09:09:00 PM 40.0660 -73.2709 223° Southwest  Level FlightAware Approximate
Tue 09:09:18 PM 40.4283 -73.5819 144° Southeast 308 354 10,500  Level New York Center
Tue 09:10:18 PM 40.3489 -73.5053 144° Southeast 343 395 12,000 1,820 Climbing New York Center
Tue 09:11:20 PM 40.2631 -73.4256 145° Southeast 369 425 14,200 1,820 Climbing New York Center
Tue 09:12:20 PM 40.1650 -73.4328 183° South 350 403 15,700 1,627 Climbing New York Center
Tue 09:13:18 PM 40.0736 -73.5106 213° Southwest 370 426 17,400 1,398 Climbing New York Center
Tue 09:15:16 PM 39.8936 -73.6497 211° Southwest 409 471 19,800 1,274 Climbing Washington Center
Tue 09:16:17 PM 39.7928 -73.7256 210° Southwest 416 479 21,200 1,339 Climbing Washington Center
Tue 09:17:17 PM 39.6939 -73.8008 210° Southwest 416 479 22,500 893 Climbing Washington Center
Tue 09:18:18 PM 39.5908 -73.8817 211° Southwest 423 487 23,000 694 Climbing Washington Center
Tue 09:19:18 PM 39.4817 -73.9647 210° Southwest 441 507 23,900 1,169 Climbing Washington Center
Tue 09:20:16 PM 39.3786 -74.0558 214° Southwest 454 522 25,300 1,412 Climbing Washington Center
Tue 09:21:17 PM 39.2839 -74.1597 220° Southwest 459 528 26,700 1,131 Climbing Washington Center
Tue 09:22:18 PM 39.1850 -74.2633 219° Southwest 454 522 27,600 836 Climbing Washington Center
Tue 09:23:19 PM 39.0861 -74.3694 220° Southwest 461 531 28,400 864 Climbing Washington Center
Tue 09:24:16 PM 38.9831 -74.4647 216° Southwest 471 542 29,300 1,119 Climbing Washington Center
Tue 09:25:17 PM 38.8756 -74.5625 215° Southwest 471 542 30,600 1,574 Climbing Washington Center
Tue 09:26:18 PM 38.7761 -74.6517 215° Southwest 471 542 32,500 1,311 Climbing Washington Center
Tue 09:27:16 PM 38.6725 -74.7461 215° Southwest 465 535 33,200 857 Climbing Washington Center
Tue 09:28:17 PM 38.5711 -74.8350 214° Southwest 460 529 34,200 984 Climbing Washington Center
Tue 09:29:18 PM 38.4694 -74.9289 216° Southwest 460 529 35,200 908 Climbing Washington Center
Tue 09:30:16 PM 38.3697 -75.0197 216° Southwest 449 517 36,000 403 Climbing Washington Center
Tue 09:31:17 PM 38.2722 -75.1078 215° Southwest 449 517 36,000  Level Washington Center
Tue 09:32:17 PM 38.1619 -75.1772 206° Southwest 449 517 36,000  Level Washington Center
Tue 09:33:18 PM 38.0411 -75.1964 187° South 438 504 36,000  Level Washington Center
Tue 09:34:18 PM 37.9161 -75.2153 187° South 443 510 36,000  Level Washington Center
Tue 09:35:18 PM 37.7889 -75.2450 190° South 458 527 36,000  Level Washington Center
Tue 09:36:16 PM 37.6639 -75.2744 191° South 463 533 36,000  Level Washington Center
Tue 09:37:17 PM 37.5386 -75.3064 191° South 468 539 36,000  Level Washington Center
Tue 09:38:18 PM 37.4158 -75.3539 197° South 463 533 36,000  Level Washington Center
Tue 09:39:16 PM 37.2950 -75.4039 198° South 463 533 36,000  Level Washington Center
Tue 09:40:16 PM 37.1761 -75.4511 198° South 458 527 36,000  Level Washington Center
Tue 09:41:17 PM 37.0550 -75.5008 198° South 458 527 36,000  Level Washington Center
Tue 09:42:16 PM 36.9342 -75.5478 197° South 458 527 36,000  Level Washington Center
Tue 09:43:17 PM 36.8236 -75.6283 210° Southwest 458 527 36,000  Level Washington Center
Tue 09:44:17 PM 36.7192 -75.7189 215° Southwest 458 527 36,000  Level Washington Center
Tue 09:45:18 PM 36.6086 -75.8094 213° Southwest 469 540 36,000  Level Washington Center
Tue 09:46:16 PM 36.4997 -75.9047 215° Southwest 474 545 36,000  Level Washington Center
Tue 09:47:16 PM 36.3764 -75.9867 208° Southwest 474 545 36,000  Level Washington Center
Tue 09:48:17 PM 36.2511 -76.0144 190° South 453 521 36,000  Level Washington Center
Tue 09:49:17 PM 36.1444 -76.1039 214° Southwest 453 521 36,000  Level Washington Center
Tue 09:50:18 PM 36.0481 -76.2164 223° Southwest 467 537 36,000 -50 Level Washington Center
Tue 09:51:18 PM 35.9533 -76.3336 225° Southwest 472 543 35,900  Descending Washington Center
Tue 09:52:16 PM 35.8672 -76.4456 227° Southwest 472 543 36,000 51 Climbing Washington Center
Tue 09:53:16 PM 35.7744 -76.5622 226° Southwest 472 543 36,000  Level Washington Center
Tue 09:54:17 PM 35.6817 -76.6839 227° Southwest 477 549 36,000  Level Washington Center
Tue 09:55:17 PM 35.5886 -76.8003 226° Southwest 477 549 36,000  Level Washington Center
Tue 09:56:17 PM 35.5083 -76.9061 227° Southwest 466 536 36,000  Level Washington Center
Tue 09:57:19 PM 35.4150 -77.0244 226° Southwest 477 549 36,000  Level Washington Center
Tue 09:58:17 PM 35.3178 -77.1422 225° Southwest 482 555 36,000  Level Washington Center
Tue 09:59:17 PM 35.2222 -77.2600 225° Southwest 482 555 36,000  Level Washington Center
Tue 10:00:18 PM 35.1286 -77.3800 226° Southwest 487 560 36,000  Level Washington Center
Tue 10:01:16 PM 35.0244 -77.5094 226° Southwest 492 566 36,000  Level Washington Center
Tue 10:02:17 PM 34.9267 -77.6261 224° Southwest 492 566 36,000  Level Washington Center
Tue 10:03:16 PM 34.8306 -77.7478 226° Southwest 503 579 36,000  Level Washington Center
Tue 10:04:17 PM 34.7364 -77.8717 227° Southwest 503 579 36,000  Level Washington Center
Tue 10:06:37 PM 34.5086 -78.1458 225° Southwest 502 578 36,000  Level Jacksonville Center
Tue 10:07:37 PM 34.4128 -78.2617 225° Southwest 497 572 36,000  Level Jacksonville Center
Tue 10:08:37 PM 34.3147 -78.3775 224° Southwest 497 572 36,000  Level Jacksonville Center
Tue 10:09:37 PM 34.2186 -78.4931 225° Southwest 491 565 36,000  Level Jacksonville Center
Tue 10:10:37 PM 34.1244 -78.6056 225° Southwest 491 565 36,000  Level Jacksonville Center
Tue 10:11:37 PM 34.0383 -78.7075 224° Southwest 491 565 36,000  Level Jacksonville Center
Tue 10:12:37 PM 33.9397 -78.8200 223° Southwest 496 571 36,000  Level Jacksonville Center
Tue 10:13:37 PM 33.8453 -78.9319 225° Southwest 490 564 36,000  Level Jacksonville Center
Tue 10:14:38 PM 33.7464 -79.0461 224° Southwest 490 564 36,000  Level Jacksonville Center
Tue 10:15:37 PM 33.6458 -79.1653 225° Southwest 483 556 36,000  Level Jacksonville Center
Tue 10:16:37 PM 33.5508 -79.2764 224° Southwest 483 556 36,000  Level Jacksonville Center
Tue 10:17:37 PM 33.4539 -79.3900 224° Southwest 483 556 36,000  Level Jacksonville Center
Tue 10:18:38 PM 33.3569 -79.5031 224° Southwest 488 562 36,000  Level Jacksonville Center
Tue 10:19:37 PM 33.2575 -79.6161 224° Southwest 493 567 36,000  Level Jacksonville Center
Tue 10:20:37 PM 33.1622 -79.7289 225° Southwest 493 567 36,000 -300 Level Jacksonville Center
Tue 10:21:37 PM 33.0628 -79.8414 223° Southwest 493 567 35,400 -800 Descending Jacksonville Center
Tue 10:22:37 PM 32.9653 -79.9511 223° Southwest 488 562 34,400 -1,000 Descending Jacksonville Center
Tue 10:23:37 PM 32.8633 -80.0608 222° Southwest 493 567 33,400 -1,000 Descending Jacksonville Center
Tue 10:24:37 PM 32.7464 -80.1486 212° Southwest 499 574 32,400 -1,000 Descending Jacksonville Center
Tue 10:25:37 PM 32.6294 -80.2433 214° Southwest 505 581 31,400 -1,000 Descending Jacksonville Center
Tue 10:26:37 PM 32.5144 -80.3331 213° Southwest 510 587 30,400 -1,000 Descending Jacksonville Center
Tue 10:27:37 PM 32.3950 -80.4250 213° Southwest 510 587 29,400 -1,000 Descending Jacksonville Center
Tue 10:28:37 PM 32.2758 -80.5164 213° Southwest 510 587 28,400 -1,000 Descending Jacksonville Center
Tue 10:29:37 PM 32.1606 -80.6031 212° Southwest 500 575 27,400 -950 Descending Jacksonville Center
Tue 10:30:37 PM 32.0492 -80.6917 214° Southwest 500 575 26,500 -942 Descending Jacksonville Center
Tue 10:31:38 PM 31.9461 -80.7700 213° Southwest 500 575 25,500 -992 Descending Jacksonville Center
Tue 10:32:38 PM 31.8203 -80.8533 209° Southwest 495 570 24,500 -1,059 Descending Jacksonville Center
Tue 10:33:37 PM 31.7022 -80.9097 202° Southwest 465 535 23,400 -1,550 Descending Jacksonville Center
Tue 10:34:38 PM 31.5944 -80.9658 204° Southwest 465 535 21,400 -2,150 Descending Jacksonville Center
Tue 10:35:37 PM 31.4700 -81.0267 203° Southwest 453 521 19,100 -2,017 Descending Jacksonville Center
Tue 10:36:37 PM 31.3667 -81.0847 206° Southwest 425 489 17,400 -1,934 Descending Jacksonville Center
Tue 10:37:38 PM 31.2803 -81.1836 224° Southwest 425 489 15,200 -2,132 Descending Jacksonville Center
Tue 10:38:38 PM 31.2019 -81.2750 225° Southwest 413 475 13,100 -2,085 Descending Jacksonville Center
Tue 10:39:36 PM 31.1281 -81.3589 224° Southwest 395 455 11,100 -1,627 Descending Jacksonville Center
Tue 10:40:36 PM 31.0433 -81.4475 222° Southwest 387 445 9,900 -545 Descending Jacksonville Center
Tue 10:41:37 PM 30.9586 -81.5214 217° Southwest 391 450 10,000 49 Climbing Jacksonville Center
Tue 10:42:38 PM 30.8778 -81.5903 216° Southwest 384 442 10,000 -440 Level Jacksonville Center
Tue 10:43:26 PM 30.8242 -81.6394 218° Southwest 292 336 9,200 -1,376 Descending Jacksonville Center
Tue 10:44:27 PM 30.7494 -81.7008 215° Southwest 303 349 7,500 -1,574 Descending Jacksonville Center
Tue 10:45:28 PM 30.6853 -81.7572 217° Southwest 284 327 6,000 -1,574 Descending Jacksonville Center
Tue 10:46:29 PM 30.6253 -81.8086 216° Southwest 277 319 4,300 -1,453 Descending Jacksonville Center
Tue 10:47:36 PM 30.5461 -81.8311 194° South 244 281 2,900 -1,254 Descending Jacksonville Center

Login

Don't have an account? Register now (free) for customized features, flight alerts, and more!